Time;durP1;ratioP1;P1;durP2;ratioP2;P2;SDS_P1;SDS_P2;PMS_P1;PMS_P2;Temp;Humidity;BMP_temperature;BMP_pressure;BME280_temperature;BME280_humidity;BME280_pressure;Samples;Min_cycle;Max_cycle;Signal;HPM_P1;HPM_P2
2022/02/28 00:01:27;;;;;;;66.90;32.88;;;;;;;-0.76;86.24;101948.09;10281452;28;20544;-76
2022/02/28 00:06:29;;;;;;;63.55;32.33;;;;;;;-0.79;86.26;101947.97;10298164;28;20102;-75
2022/02/28 00:11:31;;;;;;;65.90;32.30;;;;;;;-0.74;85.44;101941.31;10297975;28;20051;-74
2022/02/28 00:16:33;;;;;;;62.28;32.63;;;;;;;-0.71;84.90;101945.72;10298492;28;20089;-75
2022/02/28 00:21:34;;;;;;;57.55;30.23;;;;;;;-0.87;85.95;101950.19;10298589;28;20053;-74
2022/02/28 00:26:36;;;;;;;64.72;32.45;;;;;;;-0.74;86.04;101950.75;10298229;28;20042;-74
2022/02/28 00:31:37;;;;;;;64.13;33.28;;;;;;;-0.76;86.29;101950.66;10281101;28;20043;-75
2022/02/28 00:36:39;;;;;;;61.85;32.05;;;;;;;-0.80;86.85;101956.50;10296889;28;20054;-75
2022/02/28 00:41:41;;;;;;;65.65;32.83;;;;;;;-0.86;86.76;101948.50;10279653;28;20051;-75
2022/02/28 00:46:42;;;;;;;63.67;31.45;;;;;;;-0.97;87.37;101939.38;10278939;28;20047;-75
2022/02/28 00:51:44;;;;;;;58.00;31.75;;;;;;;-1.02;87.63;101941.75;10280763;28;20077;-75
2022/02/28 00:56:46;;;;;;;64.65;31.63;;;;;;;-1.07;87.40;101941.53;10278091;28;20390;-74
2022/02/28 01:01:48;;;;;;;65.35;31.50;;;;;;;-1.12;87.55;101935.28;10297014;28;20047;-75
2022/02/28 01:06:50;;;;;;;51.35;29.52;;;;;;;-1.06;87.67;101939.88;10295721;28;20074;-75
2022/02/28 01:11:52;;;;;;;58.13;31.10;;;;;;;-0.87;86.02;101928.66;10295715;28;20496;-75
2022/02/28 01:16:54;;;;;;;57.08;29.60;;;;;;;-0.71;85.98;101930.22;10278304;28;20552;-75
2022/02/28 01:21:55;;;;;;;57.75;30.88;;;;;;;-0.55;84.38;101922.34;10277524;28;20501;-75
2022/02/28 01:26:57;;;;;;;67.10;32.80;;;;;;;-0.72;85.85;101926.75;10277076;28;20074;-73
2022/02/28 01:32:00;;;;;;;57.20;30.70;;;;;;;-0.73;86.37;101918.94;10294263;28;20058;-73
2022/02/28 01:37:02;;;;;;;59.35;30.45;;;;;;;-0.76;86.71;101917.09;10294451;28;20451;-72
2022/02/28 01:42:04;;;;;;;61.22;30.95;;;;;;;-0.39;85.49;101913.56;10276710;28;20059;-73
2022/02/28 01:47:06;;;;;;;58.88;30.08;;;;;;;-0.52;84.28;101914.72;10276423;28;20047;-73
2022/02/28 01:52:08;;;;;;;57.70;30.42;;;;;;;-0.80;85.83;101920.34;10260365;28;20138;-73
2022/02/28 01:57:09;;;;;;;65.53;30.35;;;;;;;-0.79;86.91;101912.69;10260281;28;20110;-72
2022/02/28 02:02:11;;;;;;;54.45;29.85;;;;;;;-0.73;87.54;101918.94;10276040;28;20457;-72
2022/02/28 02:07:13;;;;;;;63.80;31.23;;;;;;;-0.58;87.14;101910.16;10275643;28;20062;-72
2022/02/28 02:12:15;;;;;;;60.67;30.77;;;;;;;-0.42;85.48;101909.13;10276837;28;20579;-72
2022/02/28 02:17:17;;;;;;;65.65;31.20;;;;;;;-0.53;85.78;101916.44;10275846;28;20067;-72
2022/02/28 02:22:22;;;;;;;53.97;30.58;;;;;;;-0.36;85.51;101916.25;10276176;28;20490;-72
2022/02/28 02:27:23;;;;;;;57.70;31.05;;;;;;;-0.28;84.58;101918.34;10293276;28;20039;-72
2022/02/28 02:32:25;;;;;;;58.35;29.48;;;;;;;-0.31;84.95;101917.31;10293107;28;20050;-72
2022/02/28 02:37:31;;;;;;;59.10;30.58;;;;;;;-0.26;84.89;101914.13;10276756;28;20134;-72
2022/02/28 02:42:33;;;;;;;60.88;30.85;;;;;;;-0.36;86.00;101924.88;10275303;28;20511;-72
2022/02/28 02:52:53;;;;;;;56.80;29.38;;;;;;;-0.20;84.40;101933.31;10175582;29;20099;-71
2022/02/28 02:57:56;;;;;;;50.75;28.63;;;;;;;-0.26;85.15;101926.19;10164324;29;20480;-71
2022/02/28 03:02:57;;;;;;;53.63;28.45;;;;;;;-0.33;84.93;101927.59;10146679;29;20059;-71
2022/02/28 03:07:59;;;;;;;46.10;28.08;;;;;;;-0.37;84.97;101911.91;10146880;29;20048;-70
2022/02/28 03:13:01;;;;;;;58.92;29.70;;;;;;;-0.52;85.58;101907.84;10180258;29;20040;-71
2022/02/28 03:18:03;;;;;;;52.17;27.80;;;;;;;-0.60;85.89;101901.47;10165494;29;20044;-71
2022/02/28 03:23:05;;;;;;;56.88;29.00;;;;;;;-0.65;85.97;101902.09;10184942;29;20048;-70
2022/02/28 03:28:07;;;;;;;49.00;27.75;;;;;;;-0.57;85.92;101900.72;10153660;29;20044;-71
2022/02/28 03:33:09;;;;;;;49.25;28.50;;;;;;;-0.65;85.72;101907.25;10185688;29;20052;-70
2022/02/28 03:38:11;;;;;;;60.70;28.67;;;;;;;-0.73;86.55;101901.75;10171309;29;20040;-71
2022/02/28 03:43:14;;;;;;;48.33;28.42;;;;;;;-0.64;86.50;101906.44;10168982;29;20048;-70
2022/02/28 03:48:36;;;;;;;51.40;28.38;;;;;;;-0.73;87.45;101900.88;10167603;29;20052;-71
2022/02/28 03:54:06;;;;;;;61.22;29.67;;;;;;;-0.69;87.19;101888.16;10167418;29;20056;-71
2022/02/28 03:59:10;;;;;;;57.08;31.85;;;;;;;-0.53;86.54;101880.25;10167683;29;20049;-71
2022/02/28 04:04:11;;;;;;;52.63;29.02;;;;;;;-0.31;84.84;101873.38;10168030;29;20482;-70
2022/02/28 04:09:14;;;;;;;50.33;27.42;;;;;;;-0.46;84.26;101876.22;10182538;29;20062;-71
2022/02/28 04:14:16;;;;;;;49.70;26.30;;;;;;;-0.58;85.46;101874.00;10152500;29;20095;-71
2022/02/28 04:19:18;;;;;;;49.67;27.52;;;;;;;-0.43;85.05;101866.03;10168584;29;20048;-71
2022/02/28 04:24:23;;;;;;;46.15;25.38;;;;;;;-0.53;84.71;101856.13;10169123;29;20072;-71
2022/02/28 04:29:27;;;;;;;52.25;26.67;;;;;;;-0.55;84.24;101860.34;10165791;29;20051;-71
2022/02/28 04:34:44;;;;;;;48.42;26.83;;;;;;;-0.49;84.15;101865.75;10166641;29;20451;-69
2022/02/28 04:39:46;;;;;;;50.75;25.40;;;;;;;-0.13;81.80;101863.84;10182645;29;20434;-71
2022/02/28 04:44:48;;;;;;;54.78;29.27;;;;;;;-0.38;83.45;101861.06;10168395;29;20048;-71
2022/02/28 04:49:54;;;;;;;46.67;26.25;;;;;;;-0.45;84.49;101856.44;10166635;29;20044;-71
2022/02/28 04:54:57;;;;;;;46.58;27.55;;;;;;;-0.47;84.83;101853.78;10165106;29;20056;-71
2022/02/28 05:00:00;;;;;;;50.97;26.75;;;;;;;-0.41;84.89;101856.63;10166426;29;20044;-71
2022/02/28 05:05:04;;;;;;;49.63;28.17;;;;;;;-0.41;84.51;101858.34;10183682;29;20052;-71
2022/02/28 05:10:06;;;;;;;59.72;30.23;;;;;;;-0.54;85.35;101849.19;10164178;29;20044;-71
2022/02/28 05:15:08;;;;;;;65.15;33.90;;;;;;;-0.58;85.91;101850.75;10164808;29;20062;-71
2022/02/28 05:20:11;;;;;;;67.95;35.38;;;;;;;-0.60;86.13;101849.81;10164286;29;20055;-71
2022/02/28 05:25:13;;;;;;;69.18;34.75;;;;;;;-0.66;86.37;101849.56;10164561;29;20100;-71
2022/02/28 05:30:15;;;;;;;69.63;36.40;;;;;;;-0.46;85.99;101857.25;10166311;29;20064;-71
2022/02/28 05:35:22;;;;;;;77.07;37.22;;;;;;;-0.68;86.53;101864.09;10163766;29;20052;-71
2022/02/28 05:40:46;;;;;;;71.82;36.38;;;;;;;-0.74;86.96;101861.25;10163220;29;20048;-71
2022/02/28 05:45:48;;;;;;;61.80;33.65;;;;;;;-0.48;85.91;101866.66;10179968;29;20042;-71
2022/02/28 05:51:08;;;;;;;62.55;32.13;;;;;;;-0.69;85.99;101864.91;10181645;29;20040;-71
2022/02/28 05:56:10;;;;;;;66.68;32.15;;;;;;;-0.81;86.45;101869.53;10178502;29;20079;-71
2022/02/28 06:01:12;;;;;;;68.28;31.52;;;;;;;-0.90;86.86;101876.88;10164947;29;20100;-71
2022/02/28 06:06:14;;;;;;;61.92;30.80;;;;;;;-0.85;86.64;101881.44;10180196;29;20418;-71
2022/02/28 06:11:16;;;;;;;63.72;30.20;;;;;;;-0.86;85.79;101891.69;10148379;29;20418;-71
2022/02/28 06:16:17;;;;;;;59.33;31.70;;;;;;;-1.09;86.40;101888.09;10162592;29;20044;-71
2022/02/28 06:21:19;;;;;;;66.93;32.15;;;;;;;-1.16;86.79;101892.09;10179763;29;20040;-71
2022/02/28 06:26:21;;;;;;;56.20;29.48;;;;;;;-1.09;85.99;101899.28;10179365;29;20052;-70
2022/02/28 06:31:23;;;;;;;56.03;28.08;;;;;;;-1.03;85.58;101904.72;10181344;29;20063;-72
2022/02/28 06:36:24;;;;;;;64.00;28.67;;;;;;;-1.02;84.30;101911.69;10178803;29;20044;-71
2022/02/28 06:41:26;;;;;;;62.65;29.10;;;;;;;-1.04;84.15;101923.63;10162095;29;20104;-70
2022/02/28 06:46:28;;;;;;;61.60;29.67;;;;;;;-1.08;85.10;101933.72;10161952;29;20582;-71
2022/02/28 06:51:30;;;;;;;53.42;28.08;;;;;;;-0.95;84.10;101942.91;10178237;29;20044;-71
2022/02/28 06:56:31;;;;;;;62.40;29.85;;;;;;;-0.98;84.39;101947.94;10166339;29;20048;-72
2022/02/28 07:01:35;;;;;;;52.05;26.10;;;;;;;-1.12;84.64;101957.63;10184917;29;20044;-71
2022/02/28 07:06:55;;;;;;;59.10;27.92;;;;;;;-1.09;84.19;101958.66;10187915;29;20087;-71
2022/02/28 07:11:58;;;;;;;51.08;27.13;;;;;;;-0.70;82.38;101953.53;10188791;29;20048;-74
2022/02/28 07:17:00;;;;;;;47.53;26.58;;;;;;;-0.59;82.05;101947.13;10170984;29;20040;-73
2022/02/28 07:22:03;;;;;;;53.53;25.98;;;;;;;-0.20;79.91;101936.75;10171034;29;20063;-71
2022/02/28 07:27:04;;;;;;;54.33;27.73;;;;;;;-0.18;80.49;101936.81;10169174;29;20052;-71
2022/02/28 07:32:07;;;;;;;46.67;24.88;;;;;;;-0.03;79.14;101935.78;10186724;29;20041;-70
2022/02/28 07:37:08;;;;;;;50.97;26.10;;;;;;;-0.11;79.93;101951.78;10168089;29;20395;-71
2022/02/28 07:42:10;;;;;;;46.53;25.50;;;;;;;0.44;76.44;101948.84;10182339;29;20052;-71
2022/02/28 07:47:12;;;;;;;50.72;25.52;;;;;;;0.21;77.52;101948.81;10166467;29;20052;-71
2022/02/28 07:52:13;;;;;;;55.30;26.92;;;;;;;0.22;77.38;101968.72;10186278;29;20055;-70
2022/02/28 07:57:15;;;;;;;44.70;24.40;;;;;;;0.10;77.97;101978.53;10183378;29;20112;-71
2022/02/28 08:02:17;;;;;;;42.33;22.80;;;;;;;0.60;74.78;101977.13;10165897;29;20047;-70
2022/02/28 08:07:19;;;;;;;28.00;19.58;;;;;;;0.79;71.89;101983.03;10181356;29;20048;-71
2022/02/28 08:12:20;;;;;;;22.15;18.25;;;;;;;0.62;71.60;101977.16;10182154;29;20071;-69
2022/02/28 08:17:22;;;;;;;29.80;19.65;;;;;;;0.59;72.02;101970.19;10184304;29;20126;-71
2022/02/28 08:22:29;;;;;;;25.02;17.88;;;;;;;0.88;69.60;101955.78;10168295;29;20549;-70
2022/02/28 08:27:31;;;;;;;30.38;18.27;;;;;;;0.84;70.96;101966.88;10182730;29;20495;-72
2022/02/28 08:32:33;;;;;;;29.25;18.80;;;;;;;0.72;71.66;101962.09;10164046;29;20075;-71
2022/02/28 08:37:34;;;;;;;31.65;19.05;;;;;;;1.14;69.87;101966.25;10182833;29;20091;-71
2022/02/28 08:42:36;;;;;;;32.03;19.65;;;;;;;1.47;68.81;101959.72;10182299;29;20080;-70
2022/02/28 08:47:38;;;;;;;21.55;17.83;;;;;;;1.35;67.99;101969.63;10182877;29;20051;-72
2022/02/28 08:52:39;;;;;;;26.10;19.65;;;;;;;1.39;68.83;101968.03;10231797;23;20058;-73
2022/02/28 08:57:41;;;;;;;24.13;18.05;;;;;;;1.81;66.73;101967.78;10248516;29;20059;-73
2022/02/28 09:02:44;;;;;;;23.50;18.40;;;;;;;1.81;66.80;101967.78;10204270;29;20056;-72
2022/02/28 09:07:47;;;;;;;20.23;17.20;;;;;;;1.90;66.51;101957.75;10195078;29;20501;-71
2022/02/28 09:12:48;;;;;;;26.95;18.25;;;;;;;1.95;66.01;101961.41;10260243;29;20054;-72
2022/02/28 09:17:53;;;;;;;19.70;16.67;;;;;;;2.08;64.11;101970.44;10259511;28;20405;-72
2022/02/28 09:22:54;;;;;;;20.08;17.95;;;;;;;1.87;65.06;101966.31;10259913;29;20055;-72
2022/02/28 09:27:56;;;;;;;22.92;18.67;;;;;;;1.92;64.87;101967.34;10226249;28;20133;-72
2022/02/28 09:32:57;;;;;;;26.15;19.13;;;;;;;2.09;64.24;101964.47;10242266;29;20501;-72
2022/02/28 09:38:03;;;;;;;20.55;17.52;;;;;;;2.11;64.22;101962.78;10259614;28;20063;-73
2022/02/28 09:43:08;;;;;;;25.42;17.48;;;;;;;2.11;63.61;101967.97;10225868;29;20103;-72
2022/02/28 09:48:46;;;;;;;20.40;16.20;;;;;;;2.09;63.05;101975.72;10218875;29;20562;-72
2022/02/28 09:54:07;;;;;;;22.42;17.15;;;;;;;2.17;62.72;101979.44;10219449;29;20043;-73
2022/02/28 09:59:38;;;;;;;20.85;17.25;;;;;;;2.16;63.00;101977.66;10150573;29;20080;-72
2022/02/28 10:04:45;;;;;;;19.80;17.50;;;;;;;2.22;63.69;101975.28;10200977;29;20099;-72
2022/02/28 10:10:09;;;;;;;29.70;18.65;;;;;;;2.38;62.57;101968.00;10200582;29;20135;-72
2022/02/28 10:15:15;;;;;;;18.42;16.30;;;;;;;2.06;62.77;101960.03;10217509;29;20062;-73
2022/02/28 10:20:26;;;;;;;19.13;14.68;;;;;;;2.69;60.62;101972.44;10217935;29;20035;-72
2022/02/28 10:25:32;;;;;;;17.60;15.82;;;;;;;2.94;59.61;101962.00;10218553;29;20131;-72
2022/02/28 10:31:11;;;;;;;19.90;17.38;;;;;;;3.52;57.58;101958.47;10206486;29;20058;-73
2022/02/28 10:36:25;;;;;;;16.73;15.10;;;;;;;3.57;57.67;101962.91;10225269;29;20051;-72
2022/02/28 10:41:38;;;;;;;18.73;15.30;;;;;;;3.84;55.90;101961.06;10209411;29;20399;-72
2022/02/28 10:46:43;;;;;;;15.80;14.25;;;;;;;3.94;55.27;101954.38;10207287;29;20513;-72
2022/02/28 10:51:54;;;;;;;14.95;13.02;;;;;;;3.84;55.32;101955.84;10224044;29;20039;-71
2022/02/28 10:57:08;;;;;;;13.55;12.10;;;;;;;4.05;54.30;101940.81;10225881;29;20100;-72
2022/02/28 11:02:33;;;;;;;14.82;13.35;;;;;;;4.38;53.25;101933.78;10223538;29;20055;-73
2022/02/28 11:07:47;;;;;;;14.48;12.98;;;;;;;4.63;52.44;101930.91;10208154;29;20189;-72
2022/02/28 11:12:49;;;;;;;15.40;13.70;;;;;;;4.98;51.37;101936.91;10206670;29;20134;-72
2022/02/28 11:17:52;;;;;;;14.98;13.45;;;;;;;5.38;49.65;101929.91;10223214;29;20135;-72
2022/02/28 11:22:53;;;;;;;13.93;12.60;;;;;;;5.69;47.90;101925.28;10223835;29;20095;-73
2022/02/28 11:27:57;;;;;;;14.50;13.10;;;;;;;6.00;50.51;101921.50;10223011;29;20067;-71
2022/02/28 11:33:04;;;;;;;15.13;13.60;;;;;;;5.77;49.61;101928.91;10205678;29;20079;-73
2022/02/28 11:38:19;;;;;;;14.23;12.65;;;;;;;6.29;46.93;101919.38;10222761;29;20048;-73
2022/02/28 11:43:27;;;;;;;13.65;12.43;;;;;;;6.14;48.01;101909.56;10222046;29;20047;-72
2022/02/28 11:48:50;;;;;;;16.53;13.67;;;;;;;6.11;46.85;101906.91;10221696;29;20115;-72
2022/02/28 11:53:57;;;;;;;11.85;10.70;;;;;;;6.16;44.67;101899.16;10222197;29;20063;-72
2022/02/28 11:59:04;;;;;;;12.60;11.40;;;;;;;5.90;46.38;101890.84;10222541;29;20103;-72
2022/02/28 12:04:07;;;;;;;11.25;10.27;;;;;;;6.33;44.33;101882.03;10205035;29;20052;-71
2022/02/28 12:09:09;;;;;;;10.07;8.48;;;;;;;6.08;42.44;101891.19;10221639;29;20055;-73
2022/02/28 12:14:10;;;;;;;8.68;7.82;;;;;;;5.81;43.18;101883.75;10222549;29;20044;-72
2022/02/28 12:19:12;;;;;;;10.20;9.10;;;;;;;5.84;42.81;101875.94;10221108;29;20044;-73
2022/02/28 12:24:14;;;;;;;8.20;7.40;;;;;;;5.54;43.73;101864.16;10220321;29;20047;-73
2022/02/28 12:29:16;;;;;;;8.00;7.20;;;;;;;5.45;42.66;101857.88;10221003;29;20043;-72
2022/02/28 12:34:17;;;;;;;8.18;6.63;;;;;;;5.33;42.33;101853.31;10222609;29;20059;-73
2022/02/28 12:39:22;;;;;;;8.20;6.40;;;;;;;5.01;41.04;101861.38;10221777;29;20039;-72
2022/02/28 12:44:24;;;;;;;8.57;6.68;;;;;;;4.93;42.70;101865.56;10221492;29;20052;-73
2022/02/28 12:49:27;;;;;;;7.00;6.13;;;;;;;4.90;41.59;101859.41;10220529;29;20051;-72
2022/02/28 12:54:31;;;;;;;9.35;7.15;;;;;;;4.96;43.32;101847.41;10219432;29;20564;-72
2022/02/28 12:59:38;;;;;;;7.90;6.55;;;;;;;5.14;44.59;101848.59;10220515;29;20383;-70
2022/02/28 13:04:53;;;;;;;7.05;6.05;;;;;;;4.97;42.79;101843.06;10220159;29;20059;-71
2022/02/28 13:09:55;;;;;;;8.07;7.07;;;;;;;4.97;42.84;101837.84;10218927;29;20048;-73
2022/02/28 13:15:05;;;;;;;7.32;6.43;;;;;;;4.81;43.15;101837.50;10580283;27;20380;-72
2022/02/28 13:20:08;;;;;;;7.93;7.13;;;;;;;4.78;42.91;101842.69;10579670;28;20046;-72
2022/02/28 13:25:14;;;;;;;6.55;5.68;;;;;;;4.49;42.37;101838.56;10579372;28;20048;-72
2022/02/28 13:30:17;;;;;;;7.63;5.90;;;;;;;4.61;41.18;101840.56;10579922;28;20048;-72
2022/02/28 13:35:19;;;;;;;9.85;6.50;;;;;;;4.55;43.61;101839.56;10579017;28;20123;-73
2022/02/28 13:40:23;;;;;;;6.90;5.53;;;;;;;4.50;43.45;101840.31;10560860;28;20048;-71
2022/02/28 13:45:25;;;;;;;7.30;5.88;;;;;;;4.38;43.15;101833.09;10580468;28;20101;-72
2022/02/28 13:50:31;;;;;;;4.88;3.85;;;;;;;4.57;41.77;101821.38;10561176;28;20103;-73
2022/02/28 13:55:33;;;;;;;5.35;4.05;;;;;;;4.58;39.72;101827.47;10578773;28;20040;-71
2022/02/28 14:00:35;;;;;;;4.28;3.88;;;;;;;4.58;40.41;101822.25;10579363;28;20040;-72
2022/02/28 14:05:37;;;;;;;5.30;3.83;;;;;;;4.54;40.88;101826.53;10562502;28;20052;-71
2022/02/28 14:10:42;;;;;;;5.07;4.55;;;;;;;4.49;40.75;101823.81;10561230;28;20119;-73
2022/02/28 14:15:46;;;;;;;5.75;4.30;;;;;;;4.49;41.13;101829.03;10579547;28;20071;-73
2022/02/28 14:20:50;;;;;;;5.78;4.20;;;;;;;4.58;40.03;101827.47;10561957;28;20099;-73
2022/02/28 14:26:10;;;;;;;6.20;5.30;;;;;;;4.43;40.97;101833.25;10553666;28;20060;-72
2022/02/28 14:31:34;;;;;;;7.50;6.40;;;;;;;4.23;41.72;101828.44;10551216;28;20040;-72
2022/02/28 14:36:39;;;;;;;8.13;6.65;;;;;;;4.40;42.30;101833.16;10551675;28;20043;-72
2022/02/28 14:41:42;;;;;;;6.28;5.28;;;;;;;4.26;42.01;101845.88;10552049;28;20067;-72
2022/02/28 14:46:44;;;;;;;6.65;5.60;;;;;;;3.99;42.00;101844.38;10551263;28;20051;-71
2022/02/28 14:51:47;;;;;;;8.13;6.53;;;;;;;3.96;42.31;101839.09;10552190;28;20428;-73
2022/02/28 15:02:03;;;;;;;8.50;7.35;;;;;;;3.93;42.82;101845.94;10464774;28;20052;-74
2022/02/28 15:07:05;;;;;;;8.63;7.15;;;;;;;3.85;43.23;101844.88;10452916;28;20060;-73
2022/02/28 15:12:07;;;;;;;8.15;7.00;;;;;;;3.76;41.77;101853.31;10470642;28;20486;-74
2022/02/28 15:17:09;;;;;;;8.00;7.20;;;;;;;3.79;41.25;101858.59;10450057;28;20052;-74
2022/02/28 15:22:10;;;;;;;9.63;7.60;;;;;;;3.72;41.71;101864.53;10448211;28;20052;-75
2022/02/28 15:27:12;;;;;;;8.18;7.25;;;;;;;3.53;41.88;101871.81;10445647;28;20060;-75
2022/02/28 15:32:14;;;;;;;7.78;6.38;;;;;;;3.54;41.29;101876.19;10465837;28;20044;-74
2022/02/28 15:37:16;;;;;;;8.45;7.10;;;;;;;3.44;41.63;101868.97;10463569;28;20060;-75
2022/02/28 15:42:18;;;;;;;8.18;7.35;;;;;;;3.44;41.88;101875.91;10466617;28;20041;-72
2022/02/28 15:47:19;;;;;;;9.13;7.47;;;;;;;3.33;42.20;101878.22;10463849;28;20037;-71
2022/02/28 15:52:22;;;;;;;8.70;7.45;;;;;;;3.41;41.14;101871.50;10461370;28;20041;-70
2022/02/28 15:57:25;;;;;;;9.60;7.82;;;;;;;3.18;41.62;101877.78;10457970;28;20055;-71
2022/02/28 16:02:27;;;;;;;8.05;6.68;;;;;;;3.18;41.75;101876.06;10458926;28;20048;-70
2022/02/28 16:07:32;;;;;;;8.60;7.38;;;;;;;3.10;41.38;101869.81;10461028;28;20493;-68
2022/02/28 16:12:34;;;;;;;7.18;5.80;;;;;;;3.09;39.29;101868.00;10462044;28;20060;-69
2022/02/28 16:17:35;;;;;;;7.80;6.50;;;;;;;2.92;40.13;101877.03;10465034;28;20128;-70
2022/02/28 16:22:37;;;;;;;7.22;5.95;;;;;;;2.94;39.50;101883.19;10443828;28;20045;-70
2022/02/28 16:27:41;;;;;;;7.28;6.38;;;;;;;2.77;40.08;101872.28;10460860;28;20127;-69
2022/02/28 16:32:43;;;;;;;8.30;6.22;;;;;;;2.68;40.70;101874.63;10461232;28;20044;-70
2022/02/28 16:37:44;;;;;;;10.32;8.32;;;;;;;2.52;41.24;101881.06;10444992;28;20402;-70
2022/02/28 16:42:46;;;;;;;9.07;6.45;;;;;;;2.65;41.20;101892.69;10441876;28;20053;-70
2022/02/28 16:47:48;;;;;;;9.55;7.90;;;;;;;2.48;42.32;101887.00;10426505;28;20106;-69
2022/02/28 16:52:51;;;;;;;10.45;8.35;;;;;;;2.45;42.25;101892.97;10462286;28;20033;-69
2022/02/28 16:57:53;;;;;;;9.00;8.10;;;;;;;2.43;42.55;101894.63;10446909;28;20532;-70
2022/02/28 17:02:54;;;;;;;10.40;7.95;;;;;;;2.32;42.80;101897.75;10460801;28;20061;-70
2022/02/28 17:07:57;;;;;;;10.75;8.60;;;;;;;2.36;42.79;101904.78;10443385;28;20045;-70
2022/02/28 17:12:58;;;;;;;10.80;8.40;;;;;;;2.28;43.56;101905.41;10462335;28;20056;-71
2022/02/28 17:18:00;;;;;;;9.25;8.23;;;;;;;2.08;44.06;101909.09;10462446;28;20068;-70
2022/02/28 17:23:02;;;;;;;10.45;8.32;;;;;;;2.01;44.68;101908.00;10463651;28;20033;-70
2022/02/28 17:28:04;;;;;;;9.52;8.25;;;;;;;1.91;44.98;101916.31;10443681;28;20057;-70
2022/02/28 17:33:06;;;;;;;8.82;7.93;;;;;;;2.00;45.11;101921.81;10461412;28;20120;-69
2022/02/28 17:38:07;;;;;;;9.23;7.75;;;;;;;1.69;46.05;101924.19;10459560;28;20049;-69
2022/02/28 17:43:12;;;;;;;9.23;7.18;;;;;;;1.88;45.38;101915.31;10460856;28;20076;-70
2022/02/28 17:48:14;;;;;;;9.38;8.43;;;;;;;1.75;45.20;101921.81;10459739;28;20457;-70
2022/02/28 17:53:18;;;;;;;9.95;8.52;;;;;;;1.54;46.09;101921.06;10441270;28;20037;-70
2022/02/28 17:58:21;;;;;;;13.48;8.80;;;;;;;1.34;46.10;101918.66;10443732;28;20045;-70
2022/02/28 18:03:24;;;;;;;9.98;7.05;;;;;;;1.63;45.43;101919.66;10434099;28;20064;-71
2022/02/28 18:08:27;;;;;;;10.18;8.40;;;;;;;1.44;45.90;101928.50;10468292;28;20080;-71
2022/02/28 18:13:28;;;;;;;9.70;7.72;;;;;;;1.41;45.98;101924.91;10449084;28;20136;-71
2022/02/28 18:18:30;;;;;;;8.85;7.07;;;;;;;1.43;46.08;101925.88;10449029;28;20406;-70
2022/02/28 18:23:32;;;;;;;7.97;7.07;;;;;;;1.38;46.33;101923.13;10451918;28;20072;-70
2022/02/28 18:28:34;;;;;;;8.02;6.95;;;;;;;1.38;46.75;101924.81;10467688;28;20049;-71
2022/02/28 18:33:35;;;;;;;8.45;7.22;;;;;;;1.24;47.13;101919.16;10451196;28;20045;-71
2022/02/28 18:38:37;;;;;;;9.15;6.82;;;;;;;1.09;47.79;101926.34;10450986;28;20053;-71
2022/02/28 18:43:50;;;;;;;11.65;7.53;;;;;;;0.94;48.35;101926.66;10450599;28;20045;-72
2022/02/28 18:48:52;;;;;;;8.68;7.65;;;;;;;0.65;48.88;101928.13;10468780;28;20077;-71
2022/02/28 18:53:55;;;;;;;9.13;7.55;;;;;;;0.84;48.70;101922.84;10448210;28;20060;-72
2022/02/28 18:58:57;;;;;;;8.75;7.32;;;;;;;0.79;48.79;101916.59;10467835;28;20045;-72
2022/02/28 19:03:59;;;;;;;7.47;6.65;;;;;;;0.59;49.62;101921.03;10449659;28;20041;-72
2022/02/28 19:09:01;;;;;;;10.10;7.40;;;;;;;0.94;48.81;101934.44;10468535;28;20037;-72
2022/02/28 19:14:05;;;;;;;10.70;7.70;;;;;;;0.62;49.95;101938.34;10449588;28;20469;-71
2022/02/28 19:19:08;;;;;;;8.57;6.63;;;;;;;0.54;50.30;101937.19;10432337;28;20045;-71
2022/02/28 19:24:12;;;;;;;10.38;8.05;;;;;;;0.59;50.33;101941.72;10446749;28;20080;-69
2022/02/28 19:29:14;;;;;;;8.48;7.35;;;;;;;0.68;50.27;101944.66;10446813;28;20052;-70
2022/02/28 19:34:17;;;;;;;10.57;8.48;;;;;;;0.62;50.45;101947.03;10445360;28;20059;-70
2022/02/28 19:39:20;;;;;;;8.50;7.15;;;;;;;0.17;51.52;101943.47;10446509;28;20102;-70
2022/02/28 19:44:25;;;;;;;10.10;7.80;;;;;;;0.20;52.02;101948.75;10463057;28;20044;-70
2022/02/28 19:49:32;;;;;;;10.38;8.80;;;;;;;0.12;51.84;101950.16;10446318;28;20052;-70
2022/02/28 19:54:35;;;;;;;9.85;8.85;;;;;;;-0.20;53.00;101939.34;10465243;28;20507;-70
2022/02/28 19:59:37;;;;;;;11.30;9.00;;;;;;;0.29;52.44;101951.72;10445966;28;20073;-70
2022/02/28 20:04:39;;;;;;;10.13;8.25;;;;;;;0.03;52.98;101949.78;10445191;28;20044;-70
2022/02/28 20:09:40;;;;;;;15.20;8.48;;;;;;;-0.23;53.94;101941.78;10447129;28;20076;-69
2022/02/28 20:14:42;;;;;;;9.27;7.78;;;;;;;-0.15;53.88;101950.75;10465889;28;20481;-71
2022/02/28 20:19:44;;;;;;;8.00;6.95;;;;;;;-0.55;54.59;101949.03;10465284;28;20040;-70
2022/02/28 20:24:48;;;;;;;11.43;8.10;;;;;;;-0.72;55.29;101950.00;10445934;28;20044;-70
2022/02/28 20:29:51;;;;;;;10.63;8.18;;;;;;;-0.74;55.37;101943.88;10462357;28;20040;-70
2022/02/28 20:34:56;;;;;;;9.23;8.07;;;;;;;-0.49;55.66;101953.59;10429263;28;20049;-69
2022/02/28 20:39:58;;;;;;;10.40;7.90;;;;;;;-0.79;55.84;101930.78;10463479;28;20045;-69
2022/02/28 20:44:59;;;;;;;10.60;8.60;;;;;;;-0.68;56.77;101959.66;10462546;28;20045;-71
2022/02/28 20:50:02;;;;;;;9.98;8.45;;;;;;;-0.81;57.73;101950.47;10461515;28;20043;-70
2022/02/28 20:55:07;;;;;;;10.88;8.77;;;;;;;-0.73;57.41;101942.19;10442667;28;20095;-70
2022/02/28 21:00:12;;;;;;;11.38;8.40;;;;;;;-0.57;56.61;101950.69;10439774;22;20111;-72
2022/02/28 21:05:16;;;;;;;12.18;8.57;;;;;;;-0.86;57.49;101945.91;10410204;28;20049;-73
2022/02/28 21:10:18;;;;;;;10.07;8.52;;;;;;;-0.78;57.85;101947.16;10408763;28;20046;-72
2022/02/28 21:15:20;;;;;;;10.23;9.05;;;;;;;-0.97;58.18;101954.84;10427304;28;20045;-71
2022/02/28 21:20:22;;;;;;;11.43;9.38;;;;;;;-1.28;58.82;101948.31;10409751;28;20050;-71
2022/02/28 21:25:25;;;;;;;9.95;8.88;;;;;;;-1.29;59.36;101947.41;10407343;28;20045;-71
2022/02/28 21:30:27;;;;;;;10.95;9.73;;;;;;;-1.40;60.19;101947.72;10424835;28;20068;-72
2022/02/28 21:35:29;;;;;;;14.13;10.23;;;;;;;-1.21;59.27;101937.44;10412555;28;20053;-72
2022/02/28 21:40:33;;;;;;;11.25;10.07;;;;;;;-1.21;59.62;101946.88;10416229;28;20423;-70
2022/02/28 21:45:36;;;;;;;11.32;9.60;;;;;;;-1.35;59.29;101941.97;10416894;28;20111;-72
2022/02/28 21:50:38;;;;;;;15.13;9.70;;;;;;;-0.84;58.17;101936.53;10413330;28;20049;-70
2022/02/28 21:55:43;;;;;;;11.60;10.00;;;;;;;-0.83;58.03;101943.47;10414008;28;20489;-71
2022/02/28 22:00:45;;;;;;;17.70;11.38;;;;;;;-0.74;57.47;101943.88;10412614;28;20045;-71
2022/02/28 22:05:47;;;;;;;15.82;10.68;;;;;;;-0.73;57.39;101942.19;10430846;28;20434;-71
2022/02/28 22:10:49;;;;;;;11.68;10.35;;;;;;;-0.93;58.06;101930.94;10394456;28;20081;-70
2022/02/28 22:15:50;;;;;;;12.13;9.80;;;;;;;-0.94;58.48;101934.34;10426513;28;20160;-70
2022/02/28 22:20:52;;;;;;;14.35;10.52;;;;;;;-0.95;58.31;101937.75;10407637;28;20136;-71
2022/02/28 22:25:53;;;;;;;15.52;10.73;;;;;;;-0.90;58.65;101939.72;10427105;28;20043;-71
2022/02/28 22:31:02;;;;;;;15.90;10.10;;;;;;;-1.12;59.25;101945.59;10428256;28;20052;-70
2022/02/28 22:36:04;;;;;;;12.82;9.82;;;;;;;-1.01;58.60;101948.69;10426246;28;20069;-70
2022/02/28 22:41:06;;;;;;;12.57;9.57;;;;;;;-1.38;59.91;101952.13;10407951;28;20083;-71
2022/02/28 22:46:08;;;;;;;11.27;10.13;;;;;;;-1.22;59.76;101952.84;10424065;28;20053;-70
2022/02/28 22:51:10;;;;;;;14.07;10.00;;;;;;;-1.27;59.71;101950.94;10424824;28;20095;-70
2022/02/28 22:56:11;;;;;;;9.65;8.48;;;;;;;-1.69;60.89;101961.78;10405564;28;20049;-71
2022/02/28 23:01:15;;;;;;;13.00;10.57;;;;;;;-1.63;61.32;101956.94;10423622;28;20454;-71
2022/02/28 23:06:17;;;;;;;13.40;9.77;;;;;;;-1.78;61.81;101955.38;10423785;28;20046;-71
2022/02/28 23:21:59;;;;;;;12.05;9.63;;;;;;;-1.86;62.01;101945.50;10422842;28;20099;-70
2022/02/28 23:27:01;;;;;;;13.57;10.85;;;;;;;-1.71;62.28;101946.25;10422787;28;20049;-70